createdAt,value
2018-11-06T00:00:24.194Z,8.36
2018-11-06T00:01:24.223Z,8.38
2018-11-06T00:02:24.252Z,8.39
2018-11-06T00:03:24.280Z,8.42
2018-11-06T00:04:24.310Z,8.36
2018-11-06T00:05:24.340Z,8.39
2018-11-06T00:06:24.369Z,8.36
2018-11-06T00:07:24.398Z,8.36
2018-11-06T00:08:24.426Z,8.36
2018-11-06T00:09:24.532Z,8.39
2018-11-06T00:10:24.530Z,8.42
2018-11-06T00:11:24.514Z,8.39
2018-11-06T00:12:24.542Z,8.36
2018-11-06T00:13:24.570Z,8.39
2018-11-06T00:14:24.606Z,8.45
2018-11-06T00:15:24.628Z,8.41
2018-11-06T00:16:24.656Z,8.38
2018-11-06T00:17:24.687Z,8.36
2018-11-06T00:18:24.716Z,8.39
2018-11-06T00:19:24.746Z,8.35
2018-11-06T00:20:24.773Z,8.34
2018-11-06T00:21:24.805Z,8.36
2018-11-06T00:22:24.833Z,8.53
2018-11-06T00:23:24.863Z,8.49
2018-11-06T00:24:24.890Z,8.46
2018-11-06T00:25:24.926Z,8.45
2018-11-06T00:26:24.949Z,8.49
2018-11-06T00:27:24.980Z,8.42
2018-11-06T00:28:25.005Z,8.35
2018-11-06T00:29:25.038Z,8.38
2018-11-06T00:30:25.063Z,8.38
2018-11-06T00:31:25.093Z,8.42
2018-11-06T00:32:25.125Z,8.38
2018-11-06T00:33:25.150Z,8.38
2018-11-06T00:34:25.185Z,8.44
2018-11-06T00:35:25.210Z,8.46
2018-11-06T00:36:25.262Z,8.36
2018-11-06T00:37:25.273Z,8.38
2018-11-06T00:38:25.298Z,8.36
2018-11-06T00:39:25.326Z,8.46
2018-11-06T00:40:25.355Z,8.45
2018-11-06T00:41:25.382Z,8.35
2018-11-06T00:42:25.415Z,8.36
2018-11-06T00:43:25.444Z,8.49
2018-11-06T00:44:25.470Z,8.46
2018-11-06T00:45:25.501Z,8.49
2018-11-06T00:46:25.529Z,8.44
2018-11-06T00:47:25.560Z,8.46
2018-11-06T00:48:25.588Z,8.50
2018-11-06T00:49:25.618Z,8.53
2018-11-06T00:50:25.649Z,8.46
2018-11-06T00:51:25.675Z,8.49
2018-11-06T00:52:25.703Z,8.45
2018-11-06T00:53:25.745Z,8.46
2018-11-06T00:54:25.765Z,8.46
2018-11-06T00:55:25.792Z,8.52
2018-11-06T00:56:25.821Z,8.45
2018-11-06T00:57:25.850Z,8.50
2018-11-06T00:58:25.880Z,8.45
2018-11-06T00:59:25.908Z,8.50
2018-11-06T01:00:25.936Z,8.42
2018-11-06T01:01:25.968Z,8.49
2018-11-06T01:02:25.995Z,8.50
2018-11-06T01:03:26.029Z,8.49
2018-11-06T01:04:26.054Z,8.49
2018-11-06T01:05:26.082Z,8.52
2018-11-06T01:06:26.112Z,8.52
2018-11-06T01:07:26.142Z,8.49
2018-11-06T01:08:26.169Z,8.52
2018-11-06T01:09:26.204Z,8.52
2018-11-06T01:10:26.231Z,8.46
2018-11-06T01:11:26.258Z,8.53
2018-11-06T01:12:26.286Z,8.46
2018-11-06T01:13:26.316Z,8.49
2018-11-06T01:14:26.346Z,8.49
2018-11-06T01:15:26.375Z,8.50
2018-11-06T01:16:26.402Z,8.46
2018-11-06T01:17:26.437Z,8.46
2018-11-06T01:18:26.464Z,8.49
2018-11-06T01:19:26.492Z,8.53
2018-11-06T01:20:26.524Z,8.50
2018-11-06T01:21:26.550Z,8.49
2018-11-06T01:22:26.579Z,8.50
2018-11-06T01:23:26.607Z,8.52
2018-11-06T01:24:26.640Z,8.57
2018-11-06T01:25:26.665Z,8.45
2018-11-06T01:26:26.696Z,8.60
2018-11-06T01:27:26.727Z,8.49
2018-11-06T01:28:26.761Z,8.46
2018-11-06T01:29:26.782Z,8.44
2018-11-06T01:30:26.815Z,8.45
2018-11-06T01:31:26.843Z,8.60
2018-11-06T01:32:26.871Z,8.59
2018-11-06T01:33:26.901Z,8.46
2018-11-06T01:34:26.929Z,8.49
2018-11-06T01:35:26.959Z,8.45
2018-11-06T01:36:26.987Z,8.57
2018-11-06T01:37:27.017Z,8.57
2018-11-06T01:38:27.050Z,8.50
2018-11-06T01:39:27.075Z,8.52
2018-11-06T01:40:27.108Z,8.59
2018-11-06T01:41:27.134Z,8.57
2018-11-06T01:42:27.164Z,8.46
2018-11-06T01:43:27.195Z,8.57
2018-11-06T01:44:27.224Z,8.50
2018-11-06T01:45:27.250Z,8.57
2018-11-06T01:46:27.281Z,8.50
2018-11-06T01:47:27.312Z,8.46
2018-11-06T01:48:27.339Z,8.53
2018-11-06T01:49:27.370Z,8.44
2018-11-06T01:50:27.399Z,8.57
2018-11-06T01:51:27.428Z,8.56
2018-11-06T01:52:27.456Z,8.44
2018-11-06T01:53:27.486Z,8.50
2018-11-06T01:54:27.516Z,8.45
2018-11-06T01:55:27.544Z,8.44
2018-11-06T01:56:27.574Z,8.50
2018-11-06T01:57:27.603Z,8.45
2018-11-06T01:58:27.637Z,8.53
2018-11-06T01:59:27.661Z,8.46
2018-11-06T02:00:27.689Z,8.61
2018-11-06T02:01:27.721Z,8.50
2018-11-06T02:02:27.750Z,8.49
2018-11-06T02:03:27.779Z,8.45
2018-11-06T02:04:27.808Z,8.49
2018-11-06T02:05:27.837Z,8.66
2018-11-06T02:06:27.869Z,8.56
2018-11-06T02:07:27.895Z,8.53
2018-11-06T02:08:27.925Z,8.57
2018-11-06T02:09:27.953Z,8.54
2018-11-06T02:10:27.987Z,8.56
2018-11-06T02:11:28.014Z,8.49
2018-11-06T02:12:28.042Z,8.57
2018-11-06T02:13:28.072Z,8.53
2018-11-06T02:14:28.110Z,8.50
2018-11-06T02:15:28.129Z,8.56
2018-11-06T02:16:28.160Z,8.54
2018-11-06T02:17:28.188Z,8.50
2018-11-06T02:18:28.220Z,8.53
2018-11-06T02:19:28.248Z,8.53
2018-11-06T02:20:28.279Z,8.57
2018-11-06T02:21:28.306Z,8.56
2018-11-06T02:22:28.337Z,8.60
2018-11-06T02:23:28.370Z,8.57
2018-11-06T02:24:28.394Z,8.57
2018-11-06T02:25:28.422Z,8.59
2018-11-06T02:26:28.452Z,8.54
2018-11-06T02:27:28.488Z,8.52
2018-11-06T02:28:28.511Z,8.56
2018-11-06T02:29:28.540Z,8.53
2018-11-06T02:30:28.569Z,8.57
2018-11-06T02:31:28.603Z,8.56
2018-11-06T02:32:28.719Z,8.57
2018-11-06T02:33:28.663Z,8.53
2018-11-06T02:34:28.687Z,8.54
2018-11-06T02:35:28.717Z,8.50
2018-11-06T02:36:28.746Z,8.53
2018-11-06T02:37:28.783Z,8.52
2018-11-06T02:38:28.806Z,8.50
2018-11-06T02:39:28.834Z,8.57
2018-11-06T02:40:28.864Z,8.56
2018-11-06T02:41:28.892Z,8.56
2018-11-06T02:42:28.921Z,8.56
2018-11-06T02:43:28.949Z,8.53
2018-11-06T02:44:28.979Z,8.56
2018-11-06T02:45:29.008Z,8.53
2018-11-06T02:46:29.038Z,8.57
2018-11-06T02:47:29.074Z,8.59
2018-11-06T02:48:29.098Z,8.52
2018-11-06T02:49:29.125Z,8.57
2018-11-06T02:50:29.161Z,8.52
2018-11-06T02:51:29.186Z,8.54
2018-11-06T02:52:29.216Z,8.53
2018-11-06T02:53:29.252Z,8.57
2018-11-06T02:54:29.271Z,8.61
2018-11-06T02:55:29.301Z,8.59
2018-11-06T02:56:29.330Z,8.56
2018-11-06T02:57:29.359Z,8.56
2018-11-06T02:58:29.389Z,8.53
2018-11-06T02:59:29.421Z,8.54
2018-11-06T03:00:29.449Z,8.56
2018-11-06T03:01:29.477Z,8.56
2018-11-06T03:02:29.506Z,8.60
2018-11-06T03:03:29.536Z,8.59
2018-11-06T03:04:29.568Z,8.56
2018-11-06T03:05:29.595Z,8.60
2018-11-06T03:06:29.623Z,8.59
2018-11-06T03:07:29.653Z,8.54
2018-11-06T03:08:29.681Z,8.53
2018-11-06T03:09:29.717Z,8.56
2018-11-06T03:10:29.831Z,8.54
2018-11-06T03:11:29.771Z,8.57
2018-11-06T03:12:29.803Z,8.57
2018-11-06T03:13:29.828Z,8.56
2018-11-06T03:14:29.858Z,8.54
2018-11-06T03:15:29.888Z,8.54
2018-11-06T03:16:29.915Z,8.53
2018-11-06T03:17:29.944Z,8.57
2018-11-06T03:18:29.974Z,8.56
2018-11-06T03:19:30.007Z,8.56
2018-11-06T03:20:30.034Z,8.57
2018-11-06T03:21:30.063Z,8.56
2018-11-06T03:22:30.092Z,8.59
2018-11-06T03:23:30.132Z,8.56
2018-11-06T03:24:30.152Z,8.63
2018-11-06T03:25:30.181Z,8.63
2018-11-06T03:26:30.212Z,8.57
2018-11-06T03:27:30.240Z,8.57
2018-11-06T03:28:30.271Z,8.63
2018-11-06T03:29:30.300Z,8.57
2018-11-06T03:30:30.332Z,8.63
2018-11-06T03:31:30.357Z,8.59
2018-11-06T03:32:30.388Z,8.56
2018-11-06T03:33:30.416Z,8.64
2018-11-06T03:34:30.445Z,8.60
2018-11-06T03:35:30.475Z,8.53
2018-11-06T03:36:30.505Z,8.52
2018-11-06T03:37:30.535Z,8.54
2018-11-06T03:38:30.564Z,8.54
2018-11-06T03:39:30.591Z,8.59
2018-11-06T03:40:30.632Z,8.59
2018-11-06T03:41:30.654Z,8.63
2018-11-06T03:42:30.678Z,8.60
2018-11-06T03:43:30.709Z,8.56
2018-11-06T03:44:30.740Z,8.60
2018-11-06T03:45:30.769Z,8.54
2018-11-06T03:46:30.800Z,8.56
2018-11-06T03:47:30.829Z,8.54
2018-11-06T03:48:30.856Z,8.57
2018-11-06T03:49:30.885Z,8.57
2018-11-06T03:50:30.915Z,8.53
2018-11-06T03:51:30.947Z,8.52
2018-11-06T03:52:30.974Z,8.57
2018-11-06T03:53:31.003Z,8.52
2018-11-06T03:54:31.041Z,8.54
2018-11-06T03:55:31.066Z,8.53
2018-11-06T03:56:31.089Z,8.56
2018-11-06T03:57:31.120Z,8.60
2018-11-06T03:58:31.150Z,8.56
2018-11-06T03:59:31.180Z,8.60
2018-11-06T04:00:31.214Z,8.57
2018-11-06T04:01:31.238Z,8.57
2018-11-06T04:02:31.269Z,8.56
2018-11-06T04:03:31.302Z,8.53
2018-11-06T04:04:31.328Z,8.56
2018-11-06T04:05:31.355Z,8.54
2018-11-06T04:06:31.384Z,8.59
2018-11-06T04:07:31.417Z,8.53
2018-11-06T04:08:31.442Z,8.54
2018-11-06T04:09:31.472Z,8.56
2018-11-06T04:10:31.501Z,8.57
2018-11-06T04:11:31.531Z,8.57
2018-11-06T04:12:31.559Z,8.59
2018-11-06T04:13:31.591Z,8.59
2018-11-06T04:14:31.619Z,8.61
2018-11-06T04:15:31.652Z,8.53
2018-11-06T04:16:31.678Z,8.54
2018-11-06T04:17:31.706Z,8.56
2018-11-06T04:18:31.735Z,8.57
2018-11-06T04:19:31.765Z,8.57
2018-11-06T04:20:31.793Z,8.57
2018-11-06T04:21:31.827Z,8.63
2018-11-06T04:22:31.853Z,8.56
2018-11-06T04:23:31.882Z,8.56
2018-11-06T04:24:31.913Z,8.57
2018-11-06T04:25:31.942Z,8.53
2018-11-06T04:26:31.970Z,8.59
2018-11-06T04:27:31.999Z,8.61
2018-11-06T04:28:32.026Z,8.57
2018-11-06T04:29:32.057Z,8.60
2018-11-06T04:30:32.090Z,8.53
2018-11-06T04:31:32.122Z,8.53
2018-11-06T04:32:32.144Z,8.60
2018-11-06T04:33:32.175Z,8.53
2018-11-06T04:34:32.205Z,8.54
2018-11-06T04:35:32.233Z,8.53
2018-11-06T04:36:32.263Z,8.54
2018-11-06T04:37:32.297Z,8.59
2018-11-06T04:38:32.320Z,8.56
2018-11-06T04:39:32.350Z,8.63
2018-11-06T04:40:32.377Z,8.59
2018-11-06T04:41:32.407Z,8.56
2018-11-06T04:42:32.436Z,8.60
2018-11-06T04:43:32.468Z,8.50
2018-11-06T04:44:32.495Z,8.52
2018-11-06T04:45:32.525Z,8.50
2018-11-06T04:46:32.554Z,8.56
2018-11-06T04:47:32.582Z,8.61
2018-11-06T04:48:32.617Z,8.52
2018-11-06T04:49:32.641Z,8.59
2018-11-06T04:50:32.675Z,8.56
2018-11-06T04:51:32.701Z,8.61
2018-11-06T04:52:32.728Z,8.66
2018-11-06T04:53:32.758Z,8.53
2018-11-06T04:54:32.788Z,8.56
2018-11-06T04:55:32.817Z,8.60
2018-11-06T04:56:32.846Z,8.56
2018-11-06T04:57:32.877Z,8.56
2018-11-06T04:58:32.909Z,8.59
2018-11-06T04:59:32.935Z,8.54
2018-11-06T05:00:32.962Z,8.54
2018-11-06T05:01:32.993Z,8.60
2018-11-06T05:02:33.023Z,8.57
2018-11-06T05:03:33.054Z,8.57
2018-11-06T05:04:33.081Z,8.53
2018-11-06T05:05:33.114Z,8.54
2018-11-06T05:06:33.143Z,8.53
2018-11-06T05:07:33.168Z,8.56
2018-11-06T05:08:33.196Z,8.56
2018-11-06T05:09:33.227Z,8.56
2018-11-06T05:10:33.259Z,8.60
2018-11-06T05:11:33.288Z,8.57
2018-11-06T05:12:33.315Z,8.56
2018-11-06T05:13:33.347Z,8.59
2018-11-06T05:14:33.374Z,8.61
2018-11-06T05:15:33.404Z,8.64
2018-11-06T05:16:33.434Z,8.56
2018-11-06T05:17:33.462Z,8.69
2018-11-06T05:18:33.491Z,8.66
2018-11-06T05:19:33.521Z,8.57
2018-11-06T05:20:33.552Z,8.69
2018-11-06T05:21:33.579Z,8.68
2018-11-06T05:22:33.609Z,8.63
2018-11-06T05:23:33.639Z,8.68
2018-11-06T05:24:33.665Z,8.71
2018-11-06T05:25:33.740Z,8.57
2018-11-06T05:26:33.726Z,8.64
2018-11-06T05:27:33.813Z,8.69
2018-11-06T05:28:33.787Z,8.66
2018-11-06T05:29:33.816Z,8.68
2018-11-06T05:30:33.849Z,8.68
2018-11-06T05:31:33.873Z,8.69
2018-11-06T05:32:33.905Z,8.69
2018-11-06T05:33:33.931Z,8.69
2018-11-06T05:34:33.978Z,8.71
2018-11-06T05:35:33.990Z,8.71
2018-11-06T05:36:34.017Z,8.69
2018-11-06T05:37:34.047Z,8.74
2018-11-06T05:38:34.078Z,8.71
2018-11-06T05:39:34.210Z,8.69
2018-11-06T05:40:34.138Z,8.75
2018-11-06T05:41:34.164Z,8.72
2018-11-06T05:42:34.197Z,8.72
2018-11-06T05:43:34.223Z,8.72
2018-11-06T05:44:34.255Z,8.71
2018-11-06T05:45:34.318Z,8.72
2018-11-06T05:46:34.312Z,8.72
2018-11-06T05:47:34.342Z,8.78
2018-11-06T05:48:34.370Z,8.68
2018-11-06T05:49:34.398Z,8.79
2018-11-06T05:50:34.429Z,8.71
2018-11-06T05:51:34.460Z,8.75
2018-11-06T05:52:34.489Z,8.79
2018-11-06T05:53:34.518Z,8.75
2018-11-06T05:54:34.546Z,8.82
2018-11-06T05:55:34.579Z,8.92
2018-11-06T05:56:34.606Z,8.81
2018-11-06T05:57:34.636Z,8.78
2018-11-06T05:58:34.664Z,8.78
2018-11-06T05:59:34.695Z,8.84
2018-11-06T06:00:34.756Z,8.89
2018-11-06T06:01:34.753Z,8.84
2018-11-06T06:02:34.780Z,8.92
2018-11-06T06:03:34.810Z,8.93
2018-11-06T06:04:34.839Z,8.87
2018-11-06T06:05:34.870Z,8.86
2018-11-06T06:06:34.897Z,8.81
2018-11-06T06:07:34.927Z,8.92
2018-11-06T06:08:34.955Z,8.81
2018-11-06T06:09:34.987Z,8.86
2018-11-06T06:10:35.015Z,8.92
2018-11-06T06:11:35.045Z,8.93
2018-11-06T06:12:35.074Z,8.93
2018-11-06T06:13:35.105Z,8.86
2018-11-06T06:14:35.131Z,8.86
2018-11-06T06:15:35.162Z,8.89
2018-11-06T06:16:35.254Z,8.78
2018-11-06T06:17:35.220Z,8.93
2018-11-06T06:18:35.250Z,8.90
2018-11-06T06:19:35.281Z,8.90
2018-11-06T06:20:35.309Z,8.89
2018-11-06T06:21:35.337Z,8.89
2018-11-06T06:22:35.444Z,8.95
2018-11-06T06:23:35.397Z,8.90
2018-11-06T06:24:35.429Z,8.97
2018-11-06T06:25:35.477Z,8.99
2018-11-06T06:26:35.485Z,8.99
2018-11-06T06:27:35.515Z,8.93
2018-11-06T06:28:35.629Z,9.05
2018-11-06T06:29:35.573Z,8.96
2018-11-06T06:30:35.606Z,9.05
2018-11-06T06:31:35.633Z,9.09
2018-11-06T06:32:35.662Z,9.13
2018-11-06T06:33:35.694Z,9.05
2018-11-06T06:34:35.807Z,9.05
2018-11-06T06:35:35.751Z,9.12
2018-11-06T06:36:35.780Z,9.12
2018-11-06T06:37:35.812Z,8.99
2018-11-06T06:38:35.919Z,9.08
2018-11-06T06:39:35.869Z,9.08
2018-11-06T06:40:35.897Z,9.12
2018-11-06T06:41:35.931Z,9.16
2018-11-06T06:42:35.960Z,9.12
2018-11-06T06:43:35.988Z,9.11
2018-11-06T06:44:36.021Z,9.11
2018-11-06T06:45:36.051Z,9.05
2018-11-06T06:46:36.077Z,9.18
2018-11-06T06:47:36.110Z,9.11
2018-11-06T06:48:36.135Z,9.18
2018-11-06T06:49:36.172Z,9.11
2018-11-06T06:50:36.193Z,9.18
2018-11-06T06:51:36.225Z,9.16
2018-11-06T06:52:36.256Z,9.16
2018-11-06T06:53:36.282Z,9.18
2018-11-06T06:54:36.552Z,9.15
2018-11-06T06:55:36.348Z,9.13
2018-11-06T06:56:36.374Z,9.21
2018-11-06T06:57:36.403Z,9.24
2018-11-06T06:58:36.432Z,9.26
2018-11-06T06:59:36.461Z,9.27
2018-11-06T07:00:36.529Z,9.29
2018-11-06T07:01:36.521Z,9.27
2018-11-06T07:02:36.597Z,9.36
2018-11-06T07:03:36.584Z,9.34
2018-11-06T07:04:36.609Z,9.42
2018-11-06T07:05:36.643Z,9.34
2018-11-06T07:06:36.669Z,9.40
2018-11-06T07:07:36.702Z,9.36
2018-11-06T07:08:36.728Z,9.47
2018-11-06T07:09:36.758Z,9.51
2018-11-06T07:10:36.791Z,9.45
2018-11-06T07:11:36.819Z,9.47
2018-11-06T07:12:36.897Z,9.51
2018-11-06T07:13:36.878Z,9.40
2018-11-06T07:14:36.908Z,9.47
2018-11-06T07:15:36.939Z,9.51
2018-11-06T07:16:36.967Z,9.58
2018-11-06T07:17:36.996Z,9.59
2018-11-06T07:18:37.095Z,9.54
2018-11-06T07:19:37.063Z,9.59
2018-11-06T07:20:37.091Z,9.63
2018-11-06T07:21:37.120Z,9.56
2018-11-06T07:22:37.146Z,9.64
2018-11-06T07:23:37.180Z,9.62
2018-11-06T07:24:37.205Z,9.73
2018-11-06T07:25:37.238Z,9.76
2018-11-06T07:26:37.266Z,9.72
2018-11-06T07:27:37.297Z,9.62
2018-11-06T07:28:37.395Z,9.69
2018-11-06T07:29:37.358Z,9.74
2018-11-06T07:30:37.386Z,9.63
2018-11-06T07:31:37.417Z,9.72
2018-11-06T07:32:37.445Z,9.72
2018-11-06T07:33:37.480Z,9.70
2018-11-06T07:34:37.627Z,9.76
2018-11-06T07:35:37.822Z,9.81
2018-11-06T07:36:37.567Z,9.76
2018-11-06T07:37:37.601Z,9.69
2018-11-06T07:38:37.627Z,9.73
2018-11-06T07:39:37.656Z,9.72
2018-11-06T07:40:37.739Z,9.70
2018-11-06T07:41:37.716Z,9.84
2018-11-06T07:42:37.745Z,9.77
2018-11-06T07:43:37.774Z,9.80
2018-11-06T07:44:37.808Z,9.80
2018-11-06T07:45:37.840Z,9.82
2018-11-06T07:46:37.868Z,9.76
2018-11-06T07:47:37.898Z,9.81
2018-11-06T07:48:37.924Z,9.82
2018-11-06T07:49:37.956Z,9.85
2018-11-06T07:50:37.989Z,9.85
2018-11-06T07:51:38.016Z,9.82
2018-11-06T07:52:38.046Z,9.85
2018-11-06T07:53:38.076Z,9.87
2018-11-06T07:54:38.105Z,9.94
2018-11-06T07:55:38.171Z,9.94
2018-11-06T07:56:38.166Z,9.87
2018-11-06T07:57:38.200Z,9.94
2018-11-06T07:58:38.225Z,9.91
2018-11-06T07:59:38.256Z,9.94
2018-11-06T08:00:38.289Z,9.88
2018-11-06T08:01:38.316Z,9.88
2018-11-06T08:02:38.346Z,9.91
2018-11-06T08:03:38.378Z,9.82
2018-11-06T08:04:38.408Z,9.85
2018-11-06T08:05:38.440Z,9.82
2018-11-06T08:06:38.470Z,9.81
2018-11-06T08:07:38.497Z,9.94
2018-11-06T08:08:38.528Z,9.97
2018-11-06T08:09:38.652Z,9.80
2018-11-06T08:10:38.591Z,9.85
2018-11-06T08:11:38.626Z,9.91
2018-11-06T08:12:38.651Z,9.85
2018-11-06T08:13:38.679Z,9.95
2018-11-06T08:14:38.793Z,9.91
2018-11-06T08:15:38.739Z,9.95
2018-11-06T08:16:38.770Z,9.99
2018-11-06T08:17:38.800Z,10.00
2018-11-06T08:18:38.835Z,9.95
2018-11-06T08:19:38.863Z,9.84
2018-11-06T08:20:38.982Z,9.77
2018-11-06T08:21:38.926Z,9.82
2018-11-06T08:22:38.958Z,9.88
2018-11-06T08:23:39.020Z,9.87
2018-11-06T08:24:39.012Z,9.91
2018-11-06T08:25:39.043Z,9.91
2018-11-06T08:26:39.073Z,9.95
2018-11-06T08:27:39.109Z,9.94
2018-11-06T08:28:39.134Z,9.85
2018-11-06T08:29:39.169Z,9.82
2018-11-06T08:30:39.247Z,9.84
2018-11-06T08:31:39.870Z,9.90
2018-11-06T08:32:39.682Z,9.90
2018-11-06T08:33:39.285Z,9.88
2018-11-06T08:34:39.316Z,9.87
2018-11-06T08:35:39.348Z,9.85
2018-11-06T08:36:39.477Z,9.82
2018-11-06T08:37:39.406Z,9.81
2018-11-06T08:38:39.438Z,9.82
2018-11-06T08:39:39.468Z,9.85
2018-11-06T08:40:39.498Z,9.84
2018-11-06T08:41:39.531Z,9.82
2018-11-06T08:42:39.560Z,9.82
2018-11-06T08:43:39.589Z,9.88
2018-11-06T08:44:39.619Z,9.84
2018-11-06T08:45:39.651Z,9.77
2018-11-06T08:46:39.682Z,9.85
2018-11-06T08:47:39.710Z,9.70
2018-11-06T08:48:39.740Z,9.69
2018-11-06T08:49:39.775Z,9.82
2018-11-06T08:50:39.804Z,9.81
2018-11-06T08:51:39.836Z,9.82
2018-11-06T08:52:39.861Z,9.81
2018-11-06T08:53:39.899Z,9.84
2018-11-06T08:54:39.973Z,9.85
2018-11-06T08:55:39.957Z,9.70
2018-11-06T08:56:39.985Z,9.72
2018-11-06T08:57:40.013Z,9.70
2018-11-06T08:58:40.047Z,9.70
2018-11-06T08:59:40.077Z,9.70
2018-11-06T09:00:40.102Z,9.70
2018-11-06T09:01:40.137Z,9.72
2018-11-06T09:02:40.221Z,9.74
2018-11-06T09:03:40.194Z,9.74
2018-11-06T09:04:40.227Z,9.72
2018-11-06T09:05:40.256Z,9.72
2018-11-06T09:06:40.285Z,9.74
2018-11-06T09:07:40.316Z,9.69
2018-11-06T09:08:40.377Z,9.73
2018-11-06T09:09:40.378Z,9.74
2018-11-06T09:10:40.413Z,9.70
2018-11-06T09:11:40.436Z,9.72
2018-11-06T09:12:40.467Z,9.69
2018-11-06T09:13:40.502Z,9.72
2018-11-06T09:14:40.530Z,9.81
2018-11-06T09:15:40.558Z,9.82
2018-11-06T09:16:40.588Z,9.81
2018-11-06T09:17:40.618Z,9.81
2018-11-06T09:18:40.646Z,9.73
2018-11-06T09:19:40.681Z,9.72
2018-11-06T09:20:40.707Z,9.80
2018-11-06T09:21:40.740Z,9.80
2018-11-06T09:22:40.772Z,9.80
2018-11-06T09:23:40.799Z,9.77
2018-11-06T09:24:40.829Z,9.81
2018-11-06T09:25:40.862Z,9.80
2018-11-06T09:26:40.893Z,9.74
2018-11-06T09:27:40.921Z,9.72
2018-11-06T09:28:40.951Z,9.85
2018-11-06T09:29:40.983Z,9.80
2018-11-06T09:30:41.040Z,9.73
2018-11-06T09:31:41.044Z,9.77
2018-11-06T09:32:41.073Z,9.84
2018-11-06T09:33:41.101Z,9.97
2018-11-06T09:34:41.131Z,9.94
2018-11-06T09:35:41.169Z,10.00
2018-11-06T09:36:41.192Z,9.87
2018-11-06T09:37:41.227Z,9.90
2018-11-06T09:38:41.253Z,9.95
2018-11-06T09:39:41.284Z,9.97
2018-11-06T09:40:41.315Z,9.91
2018-11-06T09:41:41.348Z,9.88
2018-11-06T09:42:41.374Z,9.95
2018-11-06T09:43:41.407Z,9.91
2018-11-06T09:44:41.434Z,9.90
2018-11-06T09:45:41.466Z,9.90
2018-11-06T09:46:41.500Z,9.88
2018-11-06T09:47:41.527Z,9.94
2018-11-06T09:48:41.557Z,9.87
2018-11-06T09:49:41.588Z,9.87
2018-11-06T09:50:41.621Z,9.92
2018-11-06T09:51:41.648Z,9.94
2018-11-06T09:52:41.677Z,9.90
2018-11-06T09:53:41.709Z,9.90
2018-11-06T09:54:41.744Z,9.95
2018-11-06T09:55:41.774Z,9.88
2018-11-06T09:56:41.801Z,9.88
2018-11-06T09:57:41.835Z,9.90
2018-11-06T09:58:41.862Z,9.90
2018-11-06T09:59:41.895Z,9.92
2018-11-06T10:00:41.923Z,10.00
2018-11-06T10:01:41.954Z,9.99
2018-11-06T10:02:41.984Z,9.95
2018-11-06T10:03:42.021Z,10.05
2018-11-06T10:04:42.045Z,10.09
2018-11-06T10:05:42.076Z,10.03
2018-11-06T10:06:42.227Z,10.05
2018-11-06T10:07:42.180Z,10.03
2018-11-06T10:08:42.168Z,10.06
2018-11-06T10:09:42.201Z,10.06
2018-11-06T10:10:42.232Z,10.07
2018-11-06T10:11:42.262Z,10.27
2018-11-06T10:12:42.295Z,10.17
2018-11-06T10:13:42.323Z,10.20
2018-11-06T10:14:42.354Z,10.18
2018-11-06T10:15:42.433Z,10.25
2018-11-06T10:16:42.419Z,10.18
2018-11-06T10:17:42.446Z,10.18
2018-11-06T10:18:42.475Z,10.24
2018-11-06T10:19:42.509Z,10.15
2018-11-06T10:20:42.537Z,10.17
2018-11-06T10:21:42.567Z,10.21
2018-11-06T10:22:42.597Z,10.25
2018-11-06T10:23:42.630Z,10.18
2018-11-06T10:24:42.658Z,10.25
2018-11-06T10:25:42.690Z,10.30
2018-11-06T10:26:42.721Z,10.25
2018-11-06T10:27:42.760Z,10.25
2018-11-06T10:28:42.787Z,10.20
2018-11-06T10:29:42.815Z,10.30
2018-11-06T10:30:42.881Z,10.31
2018-11-06T10:31:42.903Z,10.31
2018-11-06T10:32:42.914Z,10.27
2018-11-06T10:33:42.939Z,10.43
2018-11-06T10:34:42.968Z,10.34
2018-11-06T10:35:42.999Z,10.41
2018-11-06T10:36:43.032Z,10.39
2018-11-06T10:37:43.062Z,10.41
2018-11-06T10:38:43.094Z,10.36
2018-11-06T10:39:43.126Z,10.43
2018-11-06T10:40:43.155Z,10.41
2018-11-06T10:41:43.192Z,10.51
2018-11-06T10:42:43.218Z,10.41
2018-11-06T10:43:43.266Z,10.28
2018-11-06T10:44:43.281Z,10.36
2018-11-06T10:45:43.313Z,10.27
2018-11-06T10:46:43.344Z,10.38
2018-11-06T10:47:43.380Z,10.41
2018-11-06T10:48:43.405Z,10.28
2018-11-06T10:49:43.437Z,10.34
2018-11-06T10:50:43.470Z,10.38
2018-11-06T10:51:43.573Z,10.27
2018-11-06T10:52:43.532Z,10.17
2018-11-06T10:53:43.560Z,10.24
2018-11-06T10:54:43.593Z,10.27
2018-11-06T10:55:43.625Z,10.38
2018-11-06T10:56:43.654Z,10.25
2018-11-06T10:57:43.684Z,10.39
2018-11-06T10:58:43.717Z,10.33
2018-11-06T10:59:43.750Z,10.45
2018-11-06T11:00:43.776Z,10.30
2018-11-06T11:01:43.808Z,10.30
2018-11-06T11:02:43.842Z,10.36
2018-11-06T11:03:43.873Z,10.38
2018-11-06T11:04:43.901Z,10.27
2018-11-06T11:05:43.931Z,10.33
2018-11-06T11:06:43.967Z,10.27
2018-11-06T11:07:43.998Z,10.25
2018-11-06T11:08:44.028Z,10.28
2018-11-06T11:09:44.058Z,10.25
2018-11-06T11:10:44.091Z,10.21
2018-11-06T11:11:44.118Z,10.28
2018-11-06T11:12:44.149Z,10.20
2018-11-06T11:13:44.184Z,10.18
2018-11-06T11:14:44.211Z,10.21
2018-11-06T11:15:44.243Z,10.20
2018-11-06T11:16:44.273Z,10.20
2018-11-06T11:17:44.306Z,10.25
2018-11-06T11:18:44.338Z,10.20
2018-11-06T11:19:44.370Z,10.28
2018-11-06T11:20:44.397Z,10.28
2018-11-06T11:21:44.426Z,10.39
2018-11-06T11:22:44.462Z,10.31
2018-11-06T11:23:44.488Z,10.24
2018-11-06T11:24:44.529Z,10.25
2018-11-06T11:25:44.619Z,10.18
2018-11-06T11:26:44.587Z,10.25
2018-11-06T11:27:44.616Z,10.25
2018-11-06T11:28:44.647Z,10.30
2018-11-06T11:29:44.678Z,10.23
2018-11-06T11:30:44.708Z,10.20
2018-11-06T11:31:44.739Z,10.20
2018-11-06T11:32:44.767Z,10.21
2018-11-06T11:33:44.847Z,10.18
2018-11-06T11:34:44.831Z,10.25
2018-11-06T11:35:44.861Z,10.15
2018-11-06T11:36:44.898Z,10.20
2018-11-06T11:37:45.010Z,10.13
2018-11-06T11:38:44.954Z,10.20
2018-11-06T11:39:44.984Z,10.27
2018-11-06T11:40:45.013Z,10.21
2018-11-06T11:41:45.047Z,10.20
2018-11-06T11:42:45.076Z,10.20
2018-11-06T11:43:45.107Z,10.23
2018-11-06T11:44:45.139Z,10.20
2018-11-06T11:45:45.230Z,10.20
2018-11-06T11:46:45.199Z,10.21
2018-11-06T11:47:45.229Z,10.15
2018-11-06T11:48:45.262Z,10.15
2018-11-06T11:49:45.291Z,10.09
2018-11-06T11:50:45.322Z,10.09
2018-11-06T11:51:45.354Z,10.12
2018-11-06T11:52:45.385Z,10.06
2018-11-06T11:53:45.413Z,10.09
2018-11-06T11:54:45.446Z,10.17
2018-11-06T11:55:45.480Z,10.10
2018-11-06T11:56:45.504Z,10.15
2018-11-06T11:57:45.537Z,10.13
2018-11-06T11:58:45.569Z,10.18
2018-11-06T11:59:45.597Z,10.12
2018-11-06T12:00:45.628Z,10.05
2018-11-06T12:01:45.659Z,10.15
2018-11-06T12:02:45.690Z,10.20
2018-11-06T12:03:45.721Z,10.09
2018-11-06T12:04:45.749Z,10.12
2018-11-06T12:05:45.785Z,10.15
2018-11-06T12:06:45.815Z,10.20
2018-11-06T12:07:45.846Z,10.20
2018-11-06T12:08:45.875Z,10.24
2018-11-06T12:09:45.906Z,10.24
2018-11-06T12:10:45.939Z,10.20
2018-11-06T12:11:45.966Z,10.28
2018-11-06T12:12:45.998Z,10.09
2018-11-06T12:13:46.026Z,10.18
2018-11-06T12:14:46.057Z,10.12
2018-11-06T12:15:46.088Z,10.10
2018-11-06T12:16:46.120Z,10.17
2018-11-06T12:17:46.148Z,10.17
2018-11-06T12:18:46.179Z,10.20
2018-11-06T12:19:46.213Z,10.06
2018-11-06T12:20:46.243Z,10.09
2018-11-06T12:21:46.271Z,10.09
2018-11-06T12:22:46.303Z,10.15
2018-11-06T12:23:46.331Z,10.12
2018-11-06T12:24:46.594Z,10.07
2018-11-06T12:25:46.693Z,10.06
2018-11-06T12:26:46.423Z,10.09
2018-11-06T12:27:46.454Z,10.09
2018-11-06T12:28:46.485Z,10.05
2018-11-06T12:29:46.518Z,10.12
2018-11-06T12:30:46.546Z,10.03
2018-11-06T12:31:46.580Z,10.05
2018-11-06T12:32:46.611Z,10.06
2018-11-06T12:33:46.640Z,10.10
2018-11-06T12:34:46.668Z,10.09
2018-11-06T12:35:46.701Z,10.10
2018-11-06T12:36:46.779Z,10.18
2018-11-06T12:37:46.758Z,10.12
2018-11-06T12:38:46.789Z,10.09
2018-11-06T12:39:46.820Z,10.12
2018-11-06T12:40:46.852Z,10.10
2018-11-06T12:41:46.881Z,10.09
2018-11-06T12:42:46.956Z,10.12
2018-11-06T12:43:46.942Z,10.10
2018-11-06T12:44:46.974Z,10.05
2018-11-06T12:45:47.002Z,10.05
2018-11-06T12:46:47.032Z,10.05
2018-11-06T12:47:47.068Z,10.07
2018-11-06T12:48:47.093Z,10.06
2018-11-06T12:49:47.124Z,10.03
2018-11-06T12:50:47.154Z,10.03
2018-11-06T12:51:47.193Z,10.05
2018-11-06T12:52:47.214Z,10.00
2018-11-06T12:53:47.244Z,10.00
2018-11-06T12:54:47.279Z,10.03
2018-11-06T12:55:47.306Z,10.00
2018-11-06T12:56:47.336Z,9.99
2018-11-06T12:57:47.366Z,9.97
2018-11-06T12:58:47.398Z,10.02
2018-11-06T12:59:47.428Z,10.06
2018-11-06T13:00:47.458Z,10.00
2018-11-06T13:01:47.488Z,10.02
2018-11-06T13:02:47.518Z,9.99
2018-11-06T13:03:47.551Z,10.00
2018-11-06T13:04:47.581Z,9.99
2018-11-06T13:05:47.610Z,9.95
2018-11-06T13:06:47.640Z,10.02
2018-11-06T13:07:47.671Z,9.94
2018-11-06T13:08:47.700Z,10.03
2018-11-06T13:09:47.764Z,10.05
2018-11-06T13:10:47.761Z,9.97
2018-11-06T13:11:47.796Z,10.02
2018-11-06T13:12:47.821Z,10.06